Time;durP1;ratioP1;P1;durP2;ratioP2;P2;SDS_P1;SDS_P2;PMS_P1;PMS_P2;Temp;Humidity;BMP_temperature;BMP_pressure;BME280_temperature;BME280_humidity;BME280_pressure;Samples;Min_cycle;Max_cycle;Signal;HPM_P1;HPM_P2
2022/10/13 00:01:42;;;;;;;;;19.75;18.75;;;;;;;;4995862;27;51190;-47
2022/10/13 00:04:07;;;;;;;;;19.75;18.75;;;;;;;;4994642;27;51420;-47
2022/10/13 00:06:32;;;;;;;;;20.75;19.75;;;;;;;;4994188;27;52077;-47
2022/10/13 00:08:58;;;;;;;;;21.50;20.25;;;;;;;;4996495;27;52897;-47
2022/10/13 00:11:25;;;;;;;;;22.50;20.25;;;;;;;;4996401;27;51294;-48
2022/10/13 00:13:51;;;;;;;;;24.00;21.25;;;;;;;;4996988;27;51137;-48
2022/10/13 00:16:18;;;;;;;;;20.25;20.25;;;;;;;;4998632;27;52766;-49
2022/10/13 00:18:43;;;;;;;;;22.50;22.00;;;;;;;;4995905;27;51117;-49
2022/10/13 00:21:09;;;;;;;;;21.75;21.25;;;;;;;;4996189;27;51136;-49
2022/10/13 00:23:35;;;;;;;;;19.25;17.50;;;;;;;;4998220;27;51175;-49
2022/10/13 00:26:02;;;;;;;;;20.75;19.75;;;;;;;;4996840;27;51177;-47
2022/10/13 00:28:27;;;;;;;;;21.50;20.00;;;;;;;;4995605;27;51146;-47
2022/10/13 00:30:52;;;;;;;;;21.25;20.25;;;;;;;;4995622;27;51240;-47
2022/10/13 00:33:18;;;;;;;;;19.75;19.50;;;;;;;;4993246;27;51237;-48
2022/10/13 00:35:47;;;;;;;;;18.75;18.50;;;;;;;;4990628;27;51101;-48
2022/10/13 00:38:12;;;;;;;;;18.00;17.00;;;;;;;;4997118;27;51436;-47
2022/10/13 00:40:54;;;;;;;;;20.25;18.50;;;;;;;;4997120;27;51149;-47
2022/10/13 00:43:37;;;;;;;;;20.50;20.00;;;;;;;;4997809;27;51344;-46
2022/10/13 00:46:03;;;;;;;;;19.50;18.50;;;;;;;;4997350;27;52000;-46
2022/10/13 00:48:29;;;;;;;;;17.00;17.00;;;;;;;;5005975;27;51150;-46
2022/10/13 00:50:55;;;;;;;;;16.25;15.75;;;;;;;;4997231;27;51320;-48
2022/10/13 00:53:22;;;;;;;;;19.25;18.25;;;;;;;;4995964;28;51214;-47
2022/10/13 00:55:49;;;;;;;;;21.00;17.00;;;;;;;;4996104;27;51855;-47
2022/10/13 00:58:15;;;;;;;;;20.75;19.00;;;;;;;;4998506;27;51425;-48
2022/10/13 01:00:43;;;;;;;;;16.75;16.00;;;;;;;;5001875;27;51113;-48
2022/10/13 01:03:09;;;;;;;;;19.75;17.75;;;;;;;;4997777;27;51359;-47
2022/10/13 01:05:34;;;;;;;;;16.50;15.00;;;;;;;;4998619;28;52756;-47
2022/10/13 01:07:59;;;;;;;;;16.50;15.75;;;;;;;;4998009;27;52871;-48
2022/10/13 01:10:43;;;;;;;;;17.50;16.50;;;;;;;;4994598;27;51240;-47
2022/10/13 01:13:31;;;;;;;;;17.50;17.50;;;;;;;;4997938;27;52304;-47
2022/10/13 01:16:04;;;;;;;;;18.75;18.25;;;;;;;;5002725;27;53700;-47
2022/10/13 01:18:29;;;;;;;;;21.00;18.00;;;;;;;;4998113;27;51360;-47
2022/10/13 01:21:13;;;;;;;;;17.50;16.50;;;;;;;;5000021;27;51256;-47
2022/10/13 01:23:50;;;;;;;;;20.00;19.25;;;;;;;;4997224;27;51357;-47
2022/10/13 01:26:34;;;;;;;;;17.50;16.00;;;;;;;;4996779;28;52773;-48
2022/10/13 01:29:18;;;;;;;;;16.00;16.00;;;;;;;;4996091;27;51135;-47
2022/10/13 01:31:49;;;;;;;;;17.00;17.00;;;;;;;;4999716;27;51332;-47
2022/10/13 01:34:14;;;;;;;;;19.00;18.00;;;;;;;;4998673;27;51130;-47
2022/10/13 01:36:55;;;;;;;;;19.00;18.50;;;;;;;;4993895;27;51985;-47
2022/10/13 01:39:34;;;;;;;;;22.75;18.50;;;;;;;;4996052;27;51120;-47
2022/10/13 01:42:28;;;;;;;;;20.75;20.75;;;;;;;;5012656;27;51162;-49
2022/10/13 01:44:57;;;;;;;;;22.00;20.25;;;;;;;;5001508;27;52749;-46
2022/10/13 01:47:24;;;;;;;;;23.50;20.75;;;;;;;;4998467;27;51825;-50
2022/10/13 01:49:50;;;;;;;;;19.75;18.75;;;;;;;;4997394;27;51179;-48
2022/10/13 01:52:17;;;;;;;;;22.00;20.00;;;;;;;;4999364;27;51336;-47
2022/10/13 01:54:46;;;;;;;;;21.25;16.50;;;;;;;;4996448;27;51155;-49
2022/10/13 01:57:34;;;;;;;;;18.00;16.25;;;;;;;;4994994;28;52927;-46
2022/10/13 02:00:00;;;;;;;;;14.25;14.25;;;;;;;;4994329;27;51767;-49
2022/10/13 02:02:49;;;;;;;;;16.25;16.25;;;;;;;;4994127;27;52946;-49
2022/10/13 02:05:17;;;;;;;;;21.50;19.75;;;;;;;;4997522;27;51380;-48
2022/10/13 02:07:53;;;;;;;;;20.50;20.00;;;;;;;;4997101;27;53121;-50
2022/10/13 02:10:18;;;;;;;;;19.75;19.75;;;;;;;;4996805;27;51065;-49
2022/10/13 02:12:56;;;;;;;;;18.25;17.75;;;;;;;;4997766;27;52629;-49
2022/10/13 02:15:24;;;;;;;;;19.75;19.00;;;;;;;;4996052;27;51272;-48
2022/10/13 02:17:50;;;;;;;;;20.50;18.00;;;;;;;;4997231;27;51761;-49
2022/10/13 02:20:15;;;;;;;;;17.50;16.50;;;;;;;;4994707;27;51200;-47
2022/10/13 02:22:43;;;;;;;;;21.75;20.00;;;;;;;;5001928;27;51195;-48
2022/10/13 02:25:08;;;;;;;;;15.75;15.75;;;;;;;;5004886;28;51271;-47
2022/10/13 02:27:33;;;;;;;;;20.00;19.50;;;;;;;;4999192;27;51828;-47
2022/10/13 02:29:59;;;;;;;;;19.75;18.75;;;;;;;;4990872;27;51670;-47
2022/10/13 02:32:24;;;;;;;;;20.75;18.25;;;;;;;;4991498;27;52053;-49
2022/10/13 02:34:50;;;;;;;;;17.00;17.00;;;;;;;;4995549;27;51285;-47
2022/10/13 02:37:15;;;;;;;;;18.75;18.25;;;;;;;;4994330;27;51115;-46
2022/10/13 02:39:41;;;;;;;;;18.00;15.75;;;;;;;;4995987;27;52864;-48
2022/10/13 02:42:06;;;;;;;;;18.50;16.25;;;;;;;;4991786;27;51152;-47
2022/10/13 02:44:31;;;;;;;;;18.25;17.25;;;;;;;;4993645;27;51272;-48
2022/10/13 02:46:57;;;;;;;;;16.75;15.00;;;;;;;;5000517;27;52417;-47
2022/10/13 02:49:22;;;;;;;;;17.75;16.75;;;;;;;;4996343;27;51303;-47
2022/10/13 02:51:47;;;;;;;;;18.00;18.00;;;;;;;;5000527;27;51115;-47
2022/10/13 02:54:12;;;;;;;;;16.25;15.75;;;;;;;;4997158;27;51247;-47
2022/10/13 02:56:37;;;;;;;;;19.00;17.25;;;;;;;;4996672;27;51243;-47
2022/10/13 02:59:03;;;;;;;;;18.50;16.50;;;;;;;;4999937;27;51299;-47
2022/10/13 03:01:28;;;;;;;;;16.25;16.25;;;;;;;;4995219;27;51148;-47
2022/10/13 03:03:53;;;;;;;;;16.25;16.25;;;;;;;;4994156;27;52623;-47
2022/10/13 03:06:19;;;;;;;;;17.50;14.75;;;;;;;;5000052;27;51961;-48
2022/10/13 03:08:44;;;;;;;;;19.00;19.00;;;;;;;;4995837;27;51400;-48
2022/10/13 03:11:09;;;;;;;;;19.00;19.00;;;;;;;;4999231;27;51036;-47
2022/10/13 03:13:35;;;;;;;;;15.75;15.50;;;;;;;;5000042;28;51195;-47
2022/10/13 03:16:00;;;;;;;;;15.25;15.25;;;;;;;;5000892;27;51095;-48
2022/10/13 03:18:25;;;;;;;;;16.75;15.75;;;;;;;;5004959;28;52462;-48
2022/10/13 03:20:58;;;;;;;;;18.00;16.00;;;;;;;;5005506;27;51079;-48
2022/10/13 03:23:23;;;;;;;;;13.75;13.50;;;;;;;;5007434;27;51152;-48
2022/10/13 03:25:48;;;;;;;;;14.50;13.75;;;;;;;;5000965;28;51156;-49
2022/10/13 03:28:14;;;;;;;;;16.00;15.50;;;;;;;;4999156;28;51137;-48
2022/10/13 03:30:39;;;;;;;;;18.75;18.00;;;;;;;;5000057;28;50968;-49
2022/10/13 03:33:04;;;;;;;;;19.50;19.50;;;;;;;;4999135;28;52680;-47
2022/10/13 03:35:29;;;;;;;;;16.00;15.00;;;;;;;;4999122;27;51681;-48
2022/10/13 03:37:54;;;;;;;;;19.50;16.75;;;;;;;;4999122;27;51133;-47
2022/10/13 03:40:20;;;;;;;;;15.50;14.75;;;;;;;;5004745;28;51443;-47
2022/10/13 03:42:45;;;;;;;;;19.00;16.00;;;;;;;;5002348;28;52718;-47
2022/10/13 03:45:10;;;;;;;;;12.00;12.00;;;;;;;;5004263;28;51061;-49
2022/10/13 03:47:36;;;;;;;;;17.75;16.25;;;;;;;;5001166;28;51111;-48
2022/10/13 03:50:01;;;;;;;;;17.75;15.50;;;;;;;;5009448;28;50987;-48
2022/10/13 03:52:27;;;;;;;;;15.75;14.00;;;;;;;;5004316;27;51208;-47
2022/10/13 03:54:52;;;;;;;;;18.25;17.00;;;;;;;;5004059;28;53115;-48
2022/10/13 03:57:17;;;;;;;;;19.75;18.75;;;;;;;;5002828;27;51211;-48
2022/10/13 03:59:42;;;;;;;;;18.75;16.25;;;;;;;;5002036;28;51229;-49
2022/10/13 04:02:08;;;;;;;;;21.50;19.25;;;;;;;;4999154;27;51224;-48
2022/10/13 04:04:34;;;;;;;;;19.25;17.50;;;;;;;;4999132;28;51402;-48
2022/10/13 04:06:59;;;;;;;;;18.75;18.00;;;;;;;;5004154;27;52695;-48
2022/10/13 04:09:24;;;;;;;;;18.00;16.75;;;;;;;;5002782;27;51331;-49
2022/10/13 04:11:50;;;;;;;;;19.50;18.25;;;;;;;;4998471;28;51442;-48
2022/10/13 04:14:15;;;;;;;;;21.50;20.00;;;;;;;;5009907;27;52719;-49
2022/10/13 04:16:41;;;;;;;;;17.75;15.25;;;;;;;;5017533;27;51145;-48
2022/10/13 04:19:06;;;;;;;;;19.50;18.75;;;;;;;;5000185;27;51184;-47
2022/10/13 04:21:32;;;;;;;;;18.00;17.75;;;;;;;;5003060;28;50865;-48
2022/10/13 04:23:58;;;;;;;;;23.00;20.25;;;;;;;;5001213;27;54426;-48
2022/10/13 04:26:24;;;;;;;;;19.00;17.50;;;;;;;;5003993;28;50990;-48
2022/10/13 04:28:50;;;;;;;;;17.00;14.75;;;;;;;;5009245;27;51184;-48
2022/10/13 04:31:16;;;;;;;;;13.25;12.50;;;;;;;;4994286;28;51351;-48
2022/10/13 04:33:41;;;;;;;;;16.50;15.50;;;;;;;;4998476;28;52701;-47
2022/10/13 04:36:08;;;;;;;;;14.00;13.75;;;;;;;;5004123;28;51161;-48
2022/10/13 04:38:33;;;;;;;;;14.75;14.00;;;;;;;;5001072;28;51212;-48
2022/10/13 04:41:01;;;;;;;;;13.50;12.75;;;;;;;;5001912;27;51119;-48
2022/10/13 04:43:26;;;;;;;;;15.00;15.00;;;;;;;;4996512;28;53003;-48
2022/10/13 04:45:51;;;;;;;;;14.25;14.00;;;;;;;;4998505;28;51105;-49
2022/10/13 04:48:17;;;;;;;;;19.75;16.00;;;;;;;;4998695;28;51131;-48
2022/10/13 04:50:42;;;;;;;;;12.75;12.50;;;;;;;;4997622;28;51291;-50
2022/10/13 04:53:07;;;;;;;;;13.75;13.75;;;;;;;;4995981;28;53832;-49
2022/10/13 04:55:36;;;;;;;;;12.50;12.00;;;;;;;;5000006;28;52696;-49
2022/10/13 04:58:01;;;;;;;;;18.50;18.00;;;;;;;;4995822;27;51859;-48
2022/10/13 05:00:26;;;;;;;;;15.50;14.50;;;;;;;;4999578;27;51123;-49
2022/10/13 05:02:51;;;;;;;;;14.75;14.00;;;;;;;;4999337;28;51828;-49
2022/10/13 05:05:17;;;;;;;;;17.25;13.50;;;;;;;;5009017;28;51056;-47
2022/10/13 05:07:42;;;;;;;;;19.50;18.25;;;;;;;;4998547;28;51791;-49
2022/10/13 05:10:07;;;;;;;;;16.00;15.50;;;;;;;;4998188;27;51109;-49
2022/10/13 05:12:33;;;;;;;;;18.00;16.75;;;;;;;;5000689;27;51170;-48
2022/10/13 05:14:58;;;;;;;;;17.00;14.25;;;;;;;;4994657;27;51153;-48
2022/10/13 05:17:23;;;;;;;;;16.50;16.50;;;;;;;;4999947;27;51780;-48
2022/10/13 05:19:49;;;;;;;;;15.25;15.00;;;;;;;;5007786;27;51189;-48
2022/10/13 05:22:14;;;;;;;;;15.25;14.50;;;;;;;;5003969;28;52792;-48
2022/10/13 05:24:39;;;;;;;;;17.75;15.25;;;;;;;;5005228;27;51094;-49
2022/10/13 05:27:05;;;;;;;;;16.00;14.50;;;;;;;;5000624;27;50995;-49
2022/10/13 05:29:31;;;;;;;;;15.00;15.00;;;;;;;;5004775;27;51282;-49
2022/10/13 05:31:56;;;;;;;;;16.00;15.75;;;;;;;;5017527;27;54154;-49
2022/10/13 05:34:21;;;;;;;;;16.25;15.75;;;;;;;;5004928;28;50989;-50
2022/10/13 05:36:47;;;;;;;;;14.25;12.50;;;;;;;;5000034;27;51270;-49
2022/10/13 05:39:12;;;;;;;;;16.75;14.50;;;;;;;;5009043;27;52203;-48
2022/10/13 05:41:38;;;;;;;;;16.50;14.25;;;;;;;;4995626;27;51720;-49
2022/10/13 05:44:05;;;;;;;;;15.25;14.75;;;;;;;;4993924;27;51225;-48
2022/10/13 05:46:30;;;;;;;;;19.00;17.00;;;;;;;;5004312;27;51204;-48
2022/10/13 05:48:56;;;;;;;;;14.75;14.00;;;;;;;;4996074;28;51237;-47
2022/10/13 05:51:23;;;;;;;;;15.50;15.50;;;;;;;;4997023;28;52757;-49
2022/10/13 05:53:53;;;;;;;;;14.50;13.50;;;;;;;;4995356;28;51406;-49
2022/10/13 05:56:20;;;;;;;;;12.75;12.50;;;;;;;;4996324;28;53078;-48
2022/10/13 05:58:49;;;;;;;;;15.00;13.25;;;;;;;;4997024;28;51501;-47
2022/10/13 06:01:16;;;;;;;;;18.25;17.00;;;;;;;;4998541;27;51283;-47
2022/10/13 06:03:42;;;;;;;;;12.50;11.50;;;;;;;;4994986;27;51583;-47
2022/10/13 06:06:08;;;;;;;;;15.50;15.00;;;;;;;;4997638;28;51306;-48
2022/10/13 06:08:33;;;;;;;;;15.25;14.50;;;;;;;;4997491;28;51181;-48
2022/10/13 06:10:59;;;;;;;;;15.50;12.50;;;;;;;;5002575;27;51505;-51
2022/10/13 06:13:24;;;;;;;;;15.25;13.00;;;;;;;;4995264;28;51258;-48
2022/10/13 06:15:49;;;;;;;;;12.50;12.00;;;;;;;;5005387;27;51105;-48
2022/10/13 06:18:14;;;;;;;;;15.50;14.50;;;;;;;;4998874;28;51376;-48
2022/10/13 06:20:39;;;;;;;;;15.75;14.75;;;;;;;;4994996;27;51964;-47
2022/10/13 06:23:05;;;;;;;;;14.00;13.50;;;;;;;;5008647;28;51608;-52
2022/10/13 06:25:30;;;;;;;;;14.50;14.50;;;;;;;;5007050;28;51190;-47
2022/10/13 06:27:56;;;;;;;;;12.50;12.50;;;;;;;;5000357;27;51014;-47
2022/10/13 06:30:21;;;;;;;;;13.00;11.00;;;;;;;;5009601;28;51710;-47
2022/10/13 06:32:46;;;;;;;;;12.50;10.25;;;;;;;;5008875;28;51070;-48
2022/10/13 06:35:11;;;;;;;;;11.50;9.75;;;;;;;;5010138;28;51215;-46
2022/10/13 06:37:36;;;;;;;;;11.25;11.25;;;;;;;;5010337;27;51102;-47
2022/10/13 06:40:02;;;;;;;;;13.25;12.75;;;;;;;;5011305;27;51874;-47
2022/10/13 06:42:30;;;;;;;;;7.75;7.00;;;;;;;;5008670;28;51432;-47
2022/10/13 06:44:55;;;;;;;;;13.00;10.00;;;;;;;;5011391;27;51216;-47
2022/10/13 06:47:21;;;;;;;;;9.75;9.00;;;;;;;;5003645;28;50978;-46
2022/10/13 06:49:46;;;;;;;;;11.25;10.75;;;;;;;;5010910;27;51864;-46
2022/10/13 06:52:12;;;;;;;;;14.50;11.00;;;;;;;;5010779;28;51044;-46
2022/10/13 06:54:37;;;;;;;;;12.00;12.00;;;;;;;;5016233;28;50937;-46
2022/10/13 06:57:04;;;;;;;;;14.25;14.00;;;;;;;;5005289;28;51039;-49
2022/10/13 06:59:30;;;;;;;;;10.00;9.75;;;;;;;;5010545;27;51876;-48
2022/10/13 07:01:55;;;;;;;;;9.25;9.00;;;;;;;;5016550;27;50956;-48
2022/10/13 07:04:21;;;;;;;;;9.75;9.00;;;;;;;;5009261;27;51192;-48
2022/10/13 07:06:47;;;;;;;;;10.50;10.50;;;;;;;;5007942;28;51207;-48
2022/10/13 07:09:13;;;;;;;;;10.50;9.50;;;;;;;;5008348;27;53728;-47
2022/10/13 07:11:38;;;;;;;;;10.75;10.50;;;;;;;;5010910;28;51130;-48
2022/10/13 07:14:04;;;;;;;;;10.67;10.00;;;;;;;;5010459;28;51090;-47
2022/10/13 07:16:30;;;;;;;;;13.50;11.75;;;;;;;;5025135;27;51495;-45
2022/10/13 07:18:55;;;;;;;;;8.50;8.50;;;;;;;;5007102;28;51811;-47
2022/10/13 07:21:21;;;;;;;;;10.00;8.75;;;;;;;;5006516;27;51294;-47
2022/10/13 07:23:47;;;;;;;;;9.25;8.75;;;;;;;;5008803;28;51157;-48
2022/10/13 07:26:13;;;;;;;;;8.33;8.33;;;;;;;;5006303;27;51408;-47
2022/10/13 07:28:38;;;;;;;;;10.00;8.67;;;;;;;;5009421;28;51846;-47
2022/10/13 07:31:09;;;;;;;;;11.75;9.50;;;;;;;;5009699;28;51066;-47
2022/10/13 07:33:35;;;;;;;;;9.25;8.50;;;;;;;;5007039;28;51100;-48
2022/10/13 07:36:00;;;;;;;;;11.00;9.00;;;;;;;;5009765;28;51125;-47
2022/10/13 07:38:25;;;;;;;;;7.00;7.00;;;;;;;;5008799;28;51095;-49
2022/10/13 07:40:50;;;;;;;;;9.00;8.00;;;;;;;;5008472;28;51167;-48
2022/10/13 07:43:16;;;;;;;;;10.75;9.75;;;;;;;;5003398;28;51145;-48
2022/10/13 07:45:41;;;;;;;;;9.00;8.00;;;;;;;;4997932;27;51954;-48
2022/10/13 07:48:06;;;;;;;;;11.50;9.50;;;;;;;;4998335;27;52976;-48
2022/10/13 07:50:31;;;;;;;;;10.50;10.00;;;;;;;;5007541;28;51610;-51
2022/10/13 07:52:57;;;;;;;;;10.00;10.00;;;;;;;;5006428;28;50995;-47
2022/10/13 07:55:22;;;;;;;;;9.00;8.00;;;;;;;;5007660;28;51045;-45
2022/10/13 07:57:47;;;;;;;;;9.00;7.67;;;;;;;;5001618;28;52110;-46
2022/10/13 08:00:12;;;;;;;;;11.25;10.25;;;;;;;;4999197;27;50921;-47
2022/10/13 08:02:38;;;;;;;;;10.50;9.75;;;;;;;;5060237;27;50893;-47
2022/10/13 08:05:03;;;;;;;;;8.00;7.75;;;;;;;;5006746;28;51082;-49
2022/10/13 08:07:28;;;;;;;;;10.00;9.00;;;;;;;;5008492;27;51831;-46
2022/10/13 08:09:54;;;;;;;;;7.75;6.50;;;;;;;;5010885;28;51036;-48
2022/10/13 08:12:19;;;;;;;;;9.00;8.00;;;;;;;;4998710;27;51163;-48
2022/10/13 08:14:44;;;;;;;;;7.00;6.67;;;;;;;;5011341;28;51119;-48
2022/10/13 08:17:09;;;;;;;;;9.00;8.67;;;;;;;;5011292;27;51839;-47
2022/10/13 08:19:35;;;;;;;;;8.00;8.00;;;;;;;;5010590;28;50885;-47
2022/10/13 08:22:00;;;;;;;;;9.50;8.50;;;;;;;;5005074;27;51183;-48
2022/10/13 08:24:26;;;;;;;;;8.75;8.50;;;;;;;;5006470;28;50973;-47
2022/10/13 08:26:51;;;;;;;;;8.33;8.33;;;;;;;;4996352;28;51142;-48
2022/10/13 08:29:17;;;;;;;;;8.25;8.25;;;;;;;;5010565;28;51219;-47
2022/10/13 08:31:42;;;;;;;;;8.25;7.75;;;;;;;;5002975;28;51197;-48
2022/10/13 08:34:08;;;;;;;;;9.00;8.00;;;;;;;;4995654;28;51083;-47
2022/10/13 08:36:33;;;;;;;;;12.00;10.25;;;;;;;;4997120;27;51660;-47
2022/10/13 08:38:58;;;;;;;;;9.75;9.75;;;;;;;;5010576;27;51062;-48
2022/10/13 08:41:31;;;;;;;;;8.00;7.00;;;;;;;;5007498;27;51229;-47
2022/10/13 08:44:02;;;;;;;;;8.75;8.00;;;;;;;;5008001;27;51396;-47
2022/10/13 08:46:30;;;;;;;;;9.00;6.00;;;;;;;;5016607;27;51095;-46
2022/10/13 08:48:56;;;;;;;;;7.00;6.00;;;;;;;;5008890;28;51190;-47
2022/10/13 08:51:21;;;;;;;;;9.00;8.50;;;;;;;;5003122;28;51013;-47
2022/10/13 08:53:47;;;;;;;;;8.00;8.00;;;;;;;;5007233;27;51096;-47
2022/10/13 08:56:19;;;;;;;;;9.67;9.00;;;;;;;;5001355;28;53533;-47
2022/10/13 08:58:44;;;;;;;;;7.00;7.00;;;;;;;;4999778;28;51193;-48
2022/10/13 09:01:09;;;;;;;;;7.00;7.00;;;;;;;;5013396;27;51153;-48
2022/10/13 09:03:40;;;;;;;;;9.50;8.75;;;;;;;;5007819;27;50762;-47
2022/10/13 09:06:20;;;;;;;;;6.67;6.00;;;;;;;;5006280;27;51864;-47
2022/10/13 09:08:57;;;;;;;;;10.67;9.00;;;;;;;;5009809;28;51121;-47
2022/10/13 09:11:24;;;;;;;;;9.67;9.00;;;;;;;;5007400;28;51082;-47
2022/10/13 09:13:52;;;;;;;;;7.67;6.00;;;;;;;;5009092;27;51310;-48
2022/10/13 09:16:24;;;;;;;;;8.00;8.00;;;;;;;;5012828;27;52168;-48
2022/10/13 09:18:49;;;;;;;;;7.67;7.33;;;;;;;;4997346;28;51177;-52
2022/10/13 09:21:20;;;;;;;;;8.67;8.33;;;;;;;;5008408;27;51254;-47
2022/10/13 09:23:47;;;;;;;;;7.67;7.00;;;;;;;;4994451;28;51269;-47
2022/10/13 09:26:18;;;;;;;;;6.00;6.00;;;;;;;;5007496;28;51906;-47
2022/10/13 09:28:43;;;;;;;;;8.00;7.00;;;;;;;;4997310;28;50871;-48
2022/10/13 09:31:23;;;;;;;;;7.00;7.00;;;;;;;;5009013;28;51172;-47
2022/10/13 09:33:59;;;;;;;;;11.67;9.67;;;;;;;;5000503;28;50879;-46
2022/10/13 09:36:24;;;;;;;;;6.33;6.00;;;;;;;;5001743;28;52371;-47
2022/10/13 09:39:08;;;;;;;;;8.33;7.00;;;;;;;;5003868;28;51107;-47
2022/10/13 09:41:34;;;;;;;;;6.67;6.00;;;;;;;;5004406;28;51007;-46
2022/10/13 09:44:06;;;;;;;;;6.33;6.33;;;;;;;;4998810;28;51110;-46
2022/10/13 09:46:35;;;;;;;;;7.00;7.00;;;;;;;;4990242;28;53975;-47
2022/10/13 09:49:06;;;;;;;;;6.00;6.00;;;;;;;;5007782;27;50966;-49
2022/10/13 09:51:41;;;;;;;;;7.33;7.33;;;;;;;;5004469;28;51251;-47
2022/10/13 09:54:23;;;;;;;;;8.00;7.33;;;;;;;;5016312;28;51173;-47
2022/10/13 09:56:52;;;;;;;;;9.00;9.00;;;;;;;;5009932;28;52722;-46
2022/10/13 09:59:35;;;;;;;;;8.33;8.00;;;;;;;;5011753;28;51155;-47
2022/10/13 10:02:11;;;;;;;;;8.33;8.33;;;;;;;;5040525;27;50914;-48
2022/10/13 10:04:37;;;;;;;;;10.00;7.00;;;;;;;;5005863;28;51982;-47
2022/10/13 10:07:10;;;;;;;;;8.00;8.00;;;;;;;;4999233;28;51734;-48
2022/10/13 10:09:37;;;;;;;;;9.00;8.67;;;;;;;;5008534;28;51224;-46
2022/10/13 10:12:04;;;;;;;;;6.67;6.00;;;;;;;;5003993;28;51066;-48
2022/10/13 10:14:35;;;;;;;;;7.00;7.00;;;;;;;;4996352;28;51344;-46
2022/10/13 10:17:29;;;;;;;;;7.00;6.33;;;;;;;;5006042;27;51134;-47
2022/10/13 10:20:02;;;;;;;;;9.33;8.00;;;;;;;;5018033;27;51252;-45
2022/10/13 10:22:46;;;;;;;;;9.33;9.00;;;;;;;;5009358;27;51047;-48
2022/10/13 10:25:17;;;;;;;;;8.67;8.33;;;;;;;;5010388;28;51310;-47
2022/10/13 10:28:03;;;;;;;;;9.00;8.00;;;;;;;;5010929;27;52032;-48
2022/10/13 10:30:29;;;;;;;;;10.50;10.00;;;;;;;;5009485;27;51235;-47
2022/10/13 10:33:10;;;;;;;;;11.33;9.67;;;;;;;;5006085;28;50956;-47
2022/10/13 10:35:40;;;;;;;;;8.00;8.00;;;;;;;;5010329;28;51412;-48
2022/10/13 10:38:19;;;;;;;;;8.00;8.00;;;;;;;;5010816;28;52332;-48
2022/10/13 10:40:53;;;;;;;;;9.67;9.33;;;;;;;;4995460;28;51010;-47
2022/10/13 10:43:21;;;;;;;;;7.00;6.67;;;;;;;;5005541;28;51158;-50
2022/10/13 10:45:47;;;;;;;;;9.00;8.67;;;;;;;;5011637;27;51171;-48
2022/10/13 10:48:21;;;;;;;;;9.00;9.00;;;;;;;;5006471;27;51129;-47
2022/10/13 10:50:48;;;;;;;;;9.00;8.00;;;;;;;;5008258;28;51043;-47
2022/10/13 10:53:17;;;;;;;;;8.00;7.00;;;;;;;;5018348;28;51029;-47
2022/10/13 10:55:51;;;;;;;;;7.67;7.67;;;;;;;;5011644;27;50875;-46
2022/10/13 10:58:27;;;;;;;;;7.00;7.00;;;;;;;;5052561;27;51347;-48
2022/10/13 11:01:05;;;;;;;;;9.00;8.00;;;;;;;;5044028;27;50876;-48
2022/10/13 11:03:30;;;;;;;;;9.00;9.00;;;;;;;;5011262;28;51102;-46
2022/10/13 11:05:55;;;;;;;;;9.00;8.00;;;;;;;;5010079;28;51273;-49
2022/10/13 11:08:41;;;;;;;;;11.25;10.00;;;;;;;;5009940;27;51803;-47
2022/10/13 11:11:21;;;;;;;;;9.50;9.50;;;;;;;;5010869;27;50995;-47
2022/10/13 11:14:22;;;;;;;;;11.00;10.50;;;;;;;;5011208;27;51206;-49
2022/10/13 11:17:05;;;;;;;;;9.00;8.00;;;;;;;;5043211;28;51167;-47
2022/10/13 11:19:35;;;;;;;;;10.25;9.75;;;;;;;;5014318;28;51060;-49
2022/10/13 11:22:00;;;;;;;;;11.75;11.50;;;;;;;;5001222;27;51183;-49
2022/10/13 11:24:40;;;;;;;;;11.00;11.00;;;;;;;;5001115;27;51010;-48
2022/10/13 11:27:15;;;;;;;;;11.75;11.75;;;;;;;;5004406;28;52070;-47
2022/10/13 11:29:43;;;;;;;;;7.67;7.00;;;;;;;;5008626;28;50976;-48
2022/10/13 11:32:26;;;;;;;;;11.00;11.00;;;;;;;;5002094;27;51031;-48
2022/10/13 11:35:16;;;;;;;;;10.00;9.67;;;;;;;;5007784;28;51069;-48
2022/10/13 11:37:48;;;;;;;;;10.75;10.00;;;;;;;;5004592;28;51031;-50
2022/10/13 11:40:28;;;;;;;;;13.75;11.25;;;;;;;;4999658;28;51887;-48
2022/10/13 11:43:25;;;;;;;;;12.00;11.25;;;;;;;;4994155;28;51245;-48
2022/10/13 11:46:10;;;;;;;;;10.00;9.25;;;;;;;;5017418;28;51067;-49
2022/10/13 11:48:56;;;;;;;;;13.00;11.00;;;;;;;;4995433;28;51096;-48
2022/10/13 11:51:36;;;;;;;;;9.25;8.75;;;;;;;;5001824;28;51810;-48
2022/10/13 11:54:04;;;;;;;;;7.33;7.33;;;;;;;;5012200;28;50992;-47
2022/10/13 11:56:44;;;;;;;;;14.00;12.00;;;;;;;;5009993;28;51053;-47
2022/10/13 11:59:27;;;;;;;;;12.75;11.50;;;;;;;;5010372;28;51012;-47
2022/10/13 12:01:57;;;;;;;;;11.00;10.75;;;;;;;;5041142;27;52784;-46
2022/10/13 12:04:23;;;;;;;;;10.33;10.33;;;;;;;;5010606;28;50984;-47
2022/10/13 12:06:53;;;;;;;;;10.00;9.33;;;;;;;;5008386;28;50953;-46
2022/10/13 12:09:19;;;;;;;;;11.00;10.00;;;;;;;;5010838;28;51419;-47
2022/10/13 12:11:45;;;;;;;;;14.00;13.00;;;;;;;;5010166;28;51806;-47
2022/10/13 12:14:20;;;;;;;;;12.00;12.00;;;;;;;;5010082;28;51010;-48
2022/10/13 12:16:53;;;;;;;;;13.00;11.75;;;;;;;;5013232;27;50949;-48
2022/10/13 12:19:19;;;;;;;;;13.50;12.50;;;;;;;;5010045;27;51627;-48
2022/10/13 12:21:52;;;;;;;;;11.75;11.50;;;;;;;;5000278;28;52642;-47
2022/10/13 12:24:17;;;;;;;;;15.00;15.00;;;;;;;;5005437;27;51003;-47
2022/10/13 12:26:42;;;;;;;;;11.50;11.25;;;;;;;;4997433;28;51135;-47
2022/10/13 12:29:12;;;;;;;;;12.75;12.75;;;;;;;;4999827;28;51300;-48
2022/10/13 12:31:39;;;;;;;;;15.25;14.50;;;;;;;;4993077;28;51158;-46
2022/10/13 12:34:20;;;;;;;;;14.50;14.50;;;;;;;;5001817;28;51138;-47
2022/10/13 12:36:51;;;;;;;;;16.50;15.00;;;;;;;;4992161;28;51312;-46
2022/10/13 12:39:17;;;;;;;;;14.75;13.75;;;;;;;;5004425;28;51153;-47
2022/10/13 12:41:43;;;;;;;;;15.50;14.00;;;;;;;;5003668;28;50981;-48
2022/10/13 12:44:25;;;;;;;;;15.50;14.75;;;;;;;;4998653;28;50976;-47
2022/10/13 12:46:52;;;;;;;;;16.00;14.50;;;;;;;;4993322;27;51115;-46
2022/10/13 12:49:23;;;;;;;;;19.00;17.75;;;;;;;;4997707;28;51041;-47
2022/10/13 12:52:03;;;;;;;;;16.00;15.00;;;;;;;;5005941;27;51161;-51
2022/10/13 12:54:30;;;;;;;;;48.50;40.00;;;;;;;;5002801;28;51208;-47
2022/10/13 12:56:57;;;;;;;;;15.00;14.25;;;;;;;;5008952;28;51086;-48
2022/10/13 12:59:24;;;;;;;;;14.50;14.00;;;;;;;;5003926;28;51394;-50
2022/10/13 13:02:00;;;;;;;;;15.00;14.00;;;;;;;;5033626;27;51824;-47
2022/10/13 13:04:30;;;;;;;;;14.00;13.75;;;;;;;;4995077;28;51124;-48
2022/10/13 13:06:55;;;;;;;;;16.75;16.00;;;;;;;;5007906;28;51298;-49
2022/10/13 13:09:22;;;;;;;;;8.00;8.00;;;;;;;;5005638;27;51354;-48
2022/10/13 13:11:48;;;;;;;;;11.25;11.25;;;;;;;;5007851;28;51260;-49
2022/10/13 13:14:32;;;;;;;;;10.50;10.25;;;;;;;;5002131;27;51107;-49
2022/10/13 13:17:01;;;;;;;;;13.25;13.00;;;;;;;;5009772;27;51890;-48
2022/10/13 13:19:29;;;;;;;;;8.00;8.00;;;;;;;;5003099;27;50976;-49
2022/10/13 13:21:55;;;;;;;;;8.00;7.25;;;;;;;;5008886;28;51708;-52
2022/10/13 13:24:20;;;;;;;;;9.00;9.00;;;;;;;;5004632;27;51033;-48
2022/10/13 13:26:45;;;;;;;;;8.67;8.67;;;;;;;;5005970;27;51257;-48
2022/10/13 13:29:10;;;;;;;;;12.50;12.25;;;;;;;;5006168;28;51332;-48
2022/10/13 13:31:36;;;;;;;;;10.00;8.67;;;;;;;;5007846;28;50850;-48
2022/10/13 13:34:01;;;;;;;;;9.00;8.67;;;;;;;;4999622;28;51197;-48
2022/10/13 13:36:28;;;;;;;;;8.67;8.67;;;;;;;;5006964;28;50849;-49
2022/10/13 13:38:53;;;;;;;;;7.33;7.33;;;;;;;;5007060;28;51350;-47
2022/10/13 13:41:19;;;;;;;;;12.00;11.00;;;;;;;;5008808;28;51195;-48
2022/10/13 13:43:44;;;;;;;;;12.67;11.00;;;;;;;;5008790;28;50865;-49
2022/10/13 13:46:15;;;;;;;;;12.33;11.67;;;;;;;;5008159;28;50911;-47
2022/10/13 13:48:41;;;;;;;;;8.33;8.33;;;;;;;;5007219;28;51313;-48
2022/10/13 13:51:07;;;;;;;;;6.00;6.00;;;;;;;;5001928;28;51865;-47
2022/10/13 13:53:32;;;;;;;;;8.00;7.00;;;;;;;;5016861;27;51008;-47
2022/10/13 13:55:58;;;;;;;;;9.33;7.33;;;;;;;;5008567;28;50917;-48
2022/10/13 13:58:23;;;;;;;;;11.33;10.67;;;;;;;;5009034;27;51039;-46
2022/10/13 14:00:48;;;;;;;;;11.25;10.00;;;;;;;;5038698;27;51959;-47
2022/10/13 14:03:13;;;;;;;;;8.00;7.67;;;;;;;;5014710;27;50964;-47
2022/10/13 14:05:41;;;;;;;;;12.25;11.75;;;;;;;;5008551;27;51015;-47
2022/10/13 14:08:07;;;;;;;;;12.25;11.50;;;;;;;;5007623;27;51084;-48
2022/10/13 14:10:32;;;;;;;;;14.00;13.50;;;;;;;;5008500;28;51637;-48
2022/10/13 14:12:58;;;;;;;;;12.00;11.00;;;;;;;;5008467;28;51192;-47
2022/10/13 14:15:23;;;;;;;;;13.50;12.00;;;;;;;;5010857;27;51023;-48
2022/10/13 14:17:50;;;;;;;;;9.75;9.75;;;;;;;;5010945;27;50979;-47
2022/10/13 14:20:15;;;;;;;;;12.00;9.75;;;;;;;;4998459;28;51966;-48
2022/10/13 14:22:40;;;;;;;;;10.75;9.75;;;;;;;;5002355;28;50946;-47
2022/10/13 14:25:06;;;;;;;;;10.00;10.00;;;;;;;;5002656;28;50855;-46
2022/10/13 14:27:32;;;;;;;;;11.00;10.67;;;;;;;;5005111;28;51408;-47
2022/10/13 14:29:57;;;;;;;;;11.00;11.00;;;;;;;;4995054;28;51726;-49
2022/10/13 14:32:23;;;;;;;;;11.50;10.50;;;;;;;;5001342;28;50847;-48
2022/10/13 14:34:48;;;;;;;;;15.75;15.75;;;;;;;;5005752;27;50885;-47